WD6AWP Weather Reports


Display with metric or nautical units.
time (UTC)temp
F
wind
direction
speed
MPH
gust
MPH
rain 1hr
in
rain 24hr
in
rain mn
in
humidity
%
barometer
mb
20200929134632 64 327 0.0 3.0 0.00 0.00 0.00 97 1014.7
20200929133200 64 327 0.0 1.0 0.00 0.00 0.00 97 1014.7
20200929131607 64 327 1.0 3.0 0.00 0.00 0.00 97 1014.5
20200929130105 64 332 2.0 4.0 0.00 0.00 0.00 97 1014.4
20200929124622 64 9 1.0 5.0 0.00 0.00 0.00 97 1014.4
20200929123027 64 271 2.0 6.0 0.00 0.00 0.00 97 1014.2
20200929121551 64 271 1.0 4.0 0.00 0.00 0.00 97 1014.2
20200929120119 64 271 1.0 4.0 0.00 0.00 0.00 97 1014.2
20200929114535 65 271 1.0 3.0 0.00 0.00 0.00 96 1014.2
20200929113038 65 271 0.0 4.0 0.00 0.00 0.00 96 1014.2
20200929111545 65 271 0.0 3.0 0.00 0.00 0.00 96 1014.1
20200929110051 65 271 1.0 3.0 0.00 0.00 0.00 96 1014.1
20200929104630 65 271 0.0 4.0 0.00 0.00 0.00 96 1014.0
20200929101606 65 271 0.0 3.0 0.00 0.00 0.00 96 1013.9
20200929100029 64 271 0.0 3.0 0.00 0.00 0.00 96 1014.1
20200929094529 64 271 0.0 3.0 0.00 0.00 0.00 95 1014.2
20200929093058 64 271 1.0 3.0 0.00 0.00 0.00 95 1014.2
20200929091530 65 271 1.0 3.0 0.00 0.00 0.00 95 1014.3
20200929090038 65 271 1.0 3.0 0.00 0.00 0.00 95 1014.4
20200929084558 65 271 0.0 2.0 0.00 0.00 0.00 95 1014.5
20200929083050 64 271 0.0 2.0 0.00 0.00 0.00 95 1014.5
20200929081517 64 271 0.0 1.0 0.00 0.00 0.00 94 1014.4
20200929080025 64 271 0.0 0.0 0.00 0.00 0.00 94 1014.4
20200929074524 65 271 0.0 1.0 0.00 0.00 0.00 94 1014.5
20200929073127 65 271 0.0 0.0 0.00 0.00 0.00 94 1014.6
20200929071521 66 271 0.0 2.0 0.00 0.00 0.00 94 1014.5
20200929070025 66 271 0.0 2.0 0.00 0.00 0.00 94 1014.6
20200929064525 66 271 0.0 4.0 0.00 0.00 0.00 94 1014.5
20200929063024 66 271 2.0 6.0 0.00 0.00 0.00 94 1014.4
20200929061508 67 271 1.0 4.0 0.00 0.00 0.00 93 1014.5
20200929060001 67 271 2.0 7.0 0.00 0.00 0.00 93 1014.4
20200929054650 66 272 3.0 6.0 0.00 0.00 0.00 93 1014.5
20200929053145 66 360 0.0 2.0 0.00 0.00 0.00 92 1014.4
20200929051658 66 360 0.0 2.0 0.00 0.00 0.00 91 1014.2
20200929050307 67 360 0.0 1.0 0.00 0.00 0.00 91 1014.0
20200929044630 67 360 0.0 3.0 0.00 0.00 0.00 91 1013.8
20200929043137 67 15 0.0 2.0 0.00 0.00 0.00 91 1013.7
20200929041705 67 15 0.0 3.0 0.00 0.00 0.00 91 1013.5
20200929040133 68 24 1.0 4.0 0.00 0.00 0.00 91 1013.4
20200929034636 68 13 1.0 4.0 0.00 0.00 0.00 92 1013.3
20200929033316 68 286 0.0 3.0 0.00 0.00 0.00 91 1013.1
20200929031648 68 286 1.0 3.0 0.00 0.00 0.00 92 1012.9
20200929030128 68 286 2.0 8.0 0.00 0.00 0.00 91 1012.8
20200929024622 68 298 5.0 10.0 0.00 0.00 0.00 91 1012.7
20200929023243 69 270 4.0 10.0 0.00 0.00 0.00 91 1012.5
20200929021721 69 277 7.0 11.0 0.00 0.00 0.00 91 1012.3
20200929020206 69 265 8.0 16.0 0.00 0.00 0.00 90 1012.2
20200929014615 69 286 9.0 14.0 0.00 0.00 0.00 90 1012.1
20200929013154 70 271 8.0 16.0 0.00 0.00 0.00 89 1011.8
20200929011627 70 270 8.0 15.0 0.00 0.00 0.00 88 1011.7
20200929010134 71 263 10.0 15.0 0.00 0.00 0.00 86 1011.6
20200929004602 73 270 10.0 15.0 0.00 0.00 0.00 83 1011.5
20200929003120 74 254 6.0 12.0 0.00 0.00 0.00 82 1011.4
20200929001625 74 281 7.0 12.0 0.00 0.00 0.00 82 1011.4
20200929000124 73 265 8.0 15.0 0.00 0.00 0.00 83 1011.3
20200928234647 73 252 10.0 17.0 0.00 0.00 0.00 83 1011.4
20200928233048 73 256 11.0 18.0 0.00 0.00 0.00 83 1011.3
20200928231651 74 246 10.0 19.0 0.00 0.00 0.00 82 1011.4
20200928230048 74 265 10.0 19.0 0.00 0.00 0.00 82 1011.3
20200928224623 75 291 12.0 17.0 0.00 0.00 0.00 80 1011.3
20200928223048 75 266 10.0 16.0 0.00 0.00 0.00 80 1011.4
20200928221641 75 240 8.0 14.0 0.00 0.00 0.00 80 1011.4
20200928220101 75 228 9.0 17.0 0.00 0.00 0.00 79 1011.6
20200928214536 76 262 5.0 13.0 0.00 0.00 0.00 79 1011.7
20200928213103 76 255 8.0 13.0 0.00 0.00 0.00 79 1011.7
20200928211548 76 250 7.0 13.0 0.00 0.00 0.00 79 1011.9
20200928210051 75 232 8.0 13.0 0.00 0.00 0.00 79 1012.0
20200928204609 76 222 4.0 11.0 0.00 0.00 0.00 79 1012.1
20200928203053 75 275 5.0 10.0 0.00 0.00 0.00 80 1012.3
20200928201537 75 253 6.0 11.0 0.00 0.00 0.00 78 1012.5
20200928200057 75 274 6.0 10.0 0.00 0.00 0.00 79 1012.7
20200928194556 75 263 4.0 11.0 0.00 0.00 0.00 79 1012.9
20200928193035 75 229 5.0 10.0 0.00 0.00 0.00 79 1013.0
20200928191528 75 257 5.0 10.0 0.00 0.00 0.00 79 1013.1
20200928190030 75 275 5.0 9.0 0.00 0.00 0.00 79 1013.2
20200928184535 75 241 4.0 9.0 0.00 0.00 0.00 79 1013.3
20200928183057 74 246 3.0 9.0 0.00 0.00 0.00 80 1013.4
20200928181532 74 252 3.0 8.0 0.00 0.00 0.00 80 1013.5
20200928180032 75 275 3.0 7.0 0.00 0.00 0.00 80 1013.5
20200928174534 74 244 2.0 6.0 0.00 0.00 0.00 81 1013.5
20200928173041 73 223 3.0 6.0 0.00 0.00 0.00 82 1013.6
20200928170227 72 227 3.0 6.0 0.00 0.00 0.00 85 1013.5
20200928164642 71 224 3.0 5.0 0.00 0.00 0.00 87 1013.5
20200928163142 70 256 1.0 4.0 0.00 0.00 0.00 88 1013.5
20200928161707 69 256 0.0 6.0 0.00 0.00 0.00 90 1013.4
20200928160116 69 9 0.0 2.0 0.00 0.00 0.00 92 1013.2
20200928154727 68 9 0.0 4.0 0.00 0.00 0.00 93 1013.2
20200928153102 68 10 1.0 3.0 0.00 0.00 0.00 94 1012.9
20200928151610 67 10 0.0 2.0 0.00 0.00 0.00 95 1012.8
20200928150100 66 10 0.0 3.0 0.00 0.00 0.00 95 1012.8
20200928144706 64 10 0.0 0.0 0.00 0.00 0.00 95 1012.6
20200928143051 62 10 0.0 0.0 0.00 0.00 0.00 94 1012.4
20200928141600 62 10 0.0 0.0 0.00 0.00 0.00 93 1012.4
20200928140118 62 10 0.0 0.0 0.00 0.00 0.00 93 1012.3